首页
METAR-TAF:

METAR-TAF

机场 :

马德里, 西班牙

阿道弗·苏亚雷斯马德里-巴拉哈斯机场

纬度: 40-27N, 经度: 003-33W, 海拔: 609米

当前天气观测

该预报发布于31分钟前的14:00 UTC
风速3节,风向西
温度 14°C
湿度 58%
气压 1027 hPa
能见度10公里或以上
1500米以下无云,无积雨云

METAR: LEMD 221400Z 28003KT CAVOK 14/06 Q1027 NOSIG

时间: 15:31 (14:31 UTC)

预报

该预报发布于3小时和31分钟前的11:00 UTC
预报有效从22日的 12点(UTC)到 23日的 18点(UTC)
风速3节,风向多变
能见度10公里或以上
1500米以下无云,无积雨云
几率 40% :
短暂存在
从 22日的 22点(UTC)到 23日的 08点(UTC)
风速6节,风向北转东北

TAF: LEMD 221100Z 2212/2318 VRB03KT CAVOK TX17/2315Z TN02/2307Z PROB40 TEMPO 2222/2308 02006KT

超过4000个机场的气象观测和天气预报(METAR&TAF报告)。

可查询的气象台以黄色和红色小点在地图上表示。

将鼠标移到小点上方,可查看气象台名称。

然后点击查看天气观测和预报。

如需切换地图:点击带黑十字的绿色按钮放大地图;点击带横线的绿色按钮缩小地图;或者点击绿色箭头查看邻近地区的地图。


METAR-TAF: